Terminal Aerodrome Forecast
Issued by NWS

Home | Current Version | Previous Version | Graphics & Text | Print | Product List | Glossary On
Versions: 1 2 3 4 5 6 7 8 9 10 11 12 13 14 15 16 17 18 19 20 21 22 23 24
000
FTUS43 KGRB 170520
TAFATW
TAF
KATW 170520Z 1706/1806 10008KT P6SM -SHRA SCT015 OVC025
      TEMPO 1706/1707 4SM SHRA BR SCT005 BKN015
     FM170700 13007KT 6SM BR SCT007 OVC015
      TEMPO 1707/1711 3SM SHRA BR BKN007
     FM171600 20011G18KT P6SM SCT015 OVC025 PROB30 1720/1724 3SM
      -TSRA BKN015CB=

USA.gov is the U.S. government's official web portal to all federal, state and local government web resources and services.